Muskrat Dam Airport
CZMD : now visible

Airfield :











YOU CAN JOIN US ON...

 
LOGIN :

Register | Disclaimer

   EN    FR    IT 

 









Legend :    VFR   Marginal VFR   IFR   Intensive IFR   Very Intensive IFR
Visi :
Ceiling :
>= 8 km
>= 3000ft
5 to 8 km
1000 to 3000 ft
1500m to 5 km
500 to 1000 ft
800 to 1500m
200 to 500 ft
< 800m
< 200 ft
Symbols :   Thunderstorms  Fog  Heavy snow  Heavy precipitations  Wind > 20 kt






- Airport Elevation : 911 ft
- IATA code : MSA


CZMD - Muskrat Dam

CURRENT METAR :
  • 281800Z AUTO 21008KT 9SM CLR 03/M05 A2993 RMK SLP152

EXPIRED METARs :
  • 281700Z AUTO 21007KT 9SM CLR 01/M06 A2994 RMK SLP157
  • 281600Z AUTO 20006KT 9SM BKN022 M00/M05 A2996 RMK SLP165

TAF TAF CZMD
Valid from the 28 at 16:00 until the 28 at 22:00 UTC


281538Z 2816/2822 20005KT P6SM SCT020 BKN160
TEMPO 2816/2818 BKN020 OVC160
BECMG 2820/2822 18010G20KT RMK FCST BASED ON AUTO OBS. NXT FCST WILL BE ISSUED AT 290945Z



MET'MAP, your aeronautical weather chart ! - Copyright ORBIFLY December 2007 - Disclaimer

ORBIFLY MET'MAP TEAM :

Programming & Development : Alexandra Zaïnal
Concept & original design : Baudouin d'Aumeries
Assistance for programming : Marc-Olivier Méhu
Technical & hardware support : Manuel Goepfert

Contact : metmap@orbifly.com




SOURCES & CREDITS :

   NOAA       Earth
Advisory